sensor_id;sensor_type;location;lat;lon;timestamp;P1;durP1;ratioP1;P2;durP2;ratioP2
12373;SDS011;6251;51.762;8.660;2022-10-31T05:14:07;8.05;;;5.47;;
12373;SDS011;6251;51.762;8.660;2022-10-31T05:24:08;9.23;;;5.45;;
12373;SDS011;6251;51.762;8.660;2022-10-31T05:34:09;7.75;;;5.43;;
12373;SDS011;6251;51.762;8.660;2022-10-31T05:44:09;8.35;;;5.97;;
12373;SDS011;6251;51.762;8.660;2022-10-31T05:54:10;9.60;;;6.10;;
12373;SDS011;6251;51.762;8.660;2022-10-31T06:04:15;8.80;;;5.90;;
12373;SDS011;6251;51.762;8.660;2022-10-31T06:14:16;11.20;;;7.75;;
12373;SDS011;6251;51.762;8.660;2022-10-31T06:24:16;11.10;;;7.53;;
12373;SDS011;6251;51.762;8.660;2022-10-31T06:34:17;9.75;;;7.50;;
12373;SDS011;6251;51.762;8.660;2022-10-31T06:44:18;11.68;;;7.82;;
12373;SDS011;6251;51.762;8.660;2022-10-31T06:54:18;7.80;;;6.57;;
12373;SDS011;6251;51.762;8.660;2022-10-31T07:04:19;12.10;;;7.80;;
12373;SDS011;6251;51.762;8.660;2022-10-31T07:14:19;14.50;;;8.95;;
12373;SDS011;6251;51.762;8.660;2022-10-31T07:24:20;12.65;;;8.85;;
12373;SDS011;6251;51.762;8.660;2022-10-31T07:34:34;14.63;;;9.98;;
12373;SDS011;6251;51.762;8.660;2022-10-31T07:44:51;17.58;;;10.68;;
12373;SDS011;6251;51.762;8.660;2022-10-31T07:54:51;16.65;;;11.55;;
12373;SDS011;6251;51.762;8.660;2022-10-31T08:04:52;19.08;;;12.60;;
12373;SDS011;6251;51.762;8.660;2022-10-31T08:14:53;23.65;;;14.27;;
12373;SDS011;6251;51.762;8.660;2022-10-31T08:24:53;27.00;;;14.93;;
12373;SDS011;6251;51.762;8.660;2022-10-31T08:34:54;31.48;;;18.02;;
12373;SDS011;6251;51.762;8.660;2022-10-31T08:44:54;30.55;;;18.00;;
12373;SDS011;6251;51.762;8.660;2022-10-31T08:54:55;33.25;;;18.90;;
12373;SDS011;6251;51.762;8.660;2022-10-31T09:04:55;35.85;;;19.27;;
12373;SDS011;6251;51.762;8.660;2022-10-31T09:14:56;34.70;;;18.40;;
12373;SDS011;6251;51.762;8.660;2022-10-31T09:24:57;35.65;;;19.33;;
12373;SDS011;6251;51.762;8.660;2022-10-31T09:34:57;39.05;;;21.00;;
12373;SDS011;6251;51.762;8.660;2022-10-31T09:55:26;39.45;;;21.87;;
12373;SDS011;6251;51.762;8.660;2022-10-31T10:05:43;38.00;;;21.05;;
12373;SDS011;6251;51.762;8.660;2022-10-31T10:36:54;37.83;;;19.87;;
12373;SDS011;6251;51.762;8.660;2022-10-31T10:46:58;36.60;;;19.98;;
12373;SDS011;6251;51.762;8.660;2022-10-31T11:07:55;30.08;;;16.80;;
12373;SDS011;6251;51.762;8.660;2022-10-31T11:17:56;24.08;;;14.00;;
12373;SDS011;6251;51.762;8.660;2022-10-31T11:28:10;25.45;;;14.13;;
12373;SDS011;6251;51.762;8.660;2022-10-31T11:38:14;18.90;;;12.60;;
12373;SDS011;6251;51.762;8.660;2022-10-31T11:48:21;15.82;;;11.80;;
12373;SDS011;6251;51.762;8.660;2022-10-31T11:58:24;17.48;;;11.38;;
12373;SDS011;6251;51.762;8.660;2022-10-31T12:08:35;15.52;;;9.45;;
12373;SDS011;6251;51.762;8.660;2022-10-31T12:59:49;12.57;;;8.38;;
12373;SDS011;6251;51.762;8.660;2022-10-31T13:10:05;13.60;;;8.57;;
12373;SDS011;6251;51.762;8.660;2022-10-31T13:20:47;13.43;;;8.50;;
12373;SDS011;6251;51.762;8.660;2022-10-31T13:30:49;13.32;;;9.60;;
12373;SDS011;6251;51.762;8.660;2022-10-31T13:40:59;13.50;;;9.30;;
12373;SDS011;6251;51.762;8.660;2022-10-31T13:51:05;14.52;;;9.50;;
12373;SDS011;6251;51.762;8.660;2022-10-31T14:01:18;13.38;;;9.25;;
12373;SDS011;6251;51.762;8.660;2022-10-31T14:11:22;14.45;;;9.98;;
12373;SDS011;6251;51.762;8.660;2022-10-31T14:21:28;17.70;;;9.18;;
12373;SDS011;6251;51.762;8.660;2022-10-31T14:31:44;11.40;;;8.52;;
12373;SDS011;6251;51.762;8.660;2022-10-31T14:52:24;12.55;;;7.60;;
12373;SDS011;6251;51.762;8.660;2022-10-31T15:02:26;13.62;;;8.48;;
12373;SDS011;6251;51.762;8.660;2022-10-31T15:12:38;10.02;;;8.07;;
12373;SDS011;6251;51.762;8.660;2022-10-31T15:22:39;14.60;;;9.23;;
12373;SDS011;6251;51.762;8.660;2022-10-31T15:32:43;15.30;;;9.65;;
12373;SDS011;6251;51.762;8.660;2022-10-31T15:42:45;13.98;;;9.00;;
12373;SDS011;6251;51.762;8.660;2022-10-31T15:52:55;17.17;;;9.25;;
12373;SDS011;6251;51.762;8.660;2022-10-31T16:03:04;17.10;;;8.98;;
12373;SDS011;6251;51.762;8.660;2022-10-31T16:13:06;13.18;;;8.38;;
12373;SDS011;6251;51.762;8.660;2022-10-31T16:23:11;11.50;;;8.85;;
12373;SDS011;6251;51.762;8.660;2022-10-31T16:43:28;11.10;;;7.70;;
12373;SDS011;6251;51.762;8.660;2022-10-31T16:53:29;8.73;;;7.17;;
12373;SDS011;6251;51.762;8.660;2022-10-31T17:03:31;12.65;;;8.13;;
12373;SDS011;6251;51.762;8.660;2022-10-31T17:13:32;13.27;;;8.65;;
12373;SDS011;6251;51.762;8.660;2022-10-31T17:23:34;12.95;;;8.45;;
12373;SDS011;6251;51.762;8.660;2022-10-31T17:33:35;12.00;;;9.23;;
12373;SDS011;6251;51.762;8.660;2022-10-31T17:43:36;13.73;;;9.68;;
12373;SDS011;6251;51.762;8.660;2022-10-31T17:53:37;13.93;;;10.57;;
12373;SDS011;6251;51.762;8.660;2022-10-31T18:03:38;16.90;;;10.30;;
12373;SDS011;6251;51.762;8.660;2022-10-31T18:13:39;14.45;;;10.95;;
12373;SDS011;6251;51.762;8.660;2022-10-31T18:23:39;23.70;;;13.63;;
12373;SDS011;6251;51.762;8.660;2022-10-31T18:33:40;13.13;;;9.90;;
12373;SDS011;6251;51.762;8.660;2022-10-31T18:43:41;14.70;;;9.93;;
12373;SDS011;6251;51.762;8.660;2022-10-31T18:53:44;12.95;;;9.13;;
12373;SDS011;6251;51.762;8.660;2022-10-31T19:03:53;15.02;;;8.90;;
12373;SDS011;6251;51.762;8.660;2022-10-31T19:13:55;18.67;;;10.02;;
12373;SDS011;6251;51.762;8.660;2022-10-31T19:23:56;12.88;;;8.20;;
12373;SDS011;6251;51.762;8.660;2022-10-31T19:33:58;12.13;;;8.35;;
12373;SDS011;6251;51.762;8.660;2022-10-31T19:43:59;12.23;;;8.25;;
12373;SDS011;6251;51.762;8.660;2022-10-31T19:54:02;13.43;;;8.25;;
12373;SDS011;6251;51.762;8.660;2022-10-31T20:04:03;11.43;;;8.50;;
12373;SDS011;6251;51.762;8.660;2022-10-31T20:14:04;10.82;;;8.80;;
12373;SDS011;6251;51.762;8.660;2022-10-31T20:24:06;11.88;;;8.60;;
12373;SDS011;6251;51.762;8.660;2022-10-31T20:34:08;14.63;;;10.13;;
12373;SDS011;6251;51.762;8.660;2022-10-31T20:44:08;15.45;;;10.88;;
12373;SDS011;6251;51.762;8.660;2022-10-31T20:54:10;16.40;;;10.35;;
12373;SDS011;6251;51.762;8.660;2022-10-31T21:04:12;15.15;;;10.05;;
12373;SDS011;6251;51.762;8.660;2022-10-31T21:14:13;12.27;;;9.02;;
12373;SDS011;6251;51.762;8.660;2022-10-31T21:24:15;12.17;;;8.70;;
12373;SDS011;6251;51.762;8.660;2022-10-31T21:34:17;15.05;;;9.52;;
12373;SDS011;6251;51.762;8.660;2022-10-31T21:44:17;14.05;;;9.88;;
12373;SDS011;6251;51.762;8.660;2022-10-31T21:54:19;11.77;;;8.63;;
12373;SDS011;6251;51.762;8.660;2022-10-31T22:04:29;12.60;;;10.30;;
12373;SDS011;6251;51.762;8.660;2022-10-31T22:14:29;14.68;;;9.35;;
